createdAt,value
2023-03-23T00:00:03.208Z,79.33
2023-03-23T00:05:03.031Z,80.57
2023-03-23T00:10:02.829Z,81.79
2023-03-23T00:15:03.516Z,81.24
2023-03-23T00:20:02.770Z,80.99
2023-03-23T00:25:03.495Z,80.55
2023-03-23T00:30:03.109Z,80.27
2023-03-23T00:35:02.479Z,79.46
2023-03-23T00:40:02.711Z,79.33
2023-03-23T00:45:03.496Z,78.22
2023-03-23T00:50:03.215Z,76.74
2023-03-23T00:55:03.091Z,76.35
2023-03-23T01:00:06.692Z,77.26
2023-03-23T01:05:03.716Z,78.45
2023-03-23T01:10:03.364Z,78.17
2023-03-23T01:15:03.560Z,78.12
2023-03-23T01:20:03.421Z,77.93
2023-03-23T01:25:03.067Z,77.82
2023-03-23T01:30:02.980Z,77.53
2023-03-23T01:35:02.787Z,77.27
2023-03-23T01:40:02.985Z,78.79
2023-03-23T01:45:03.831Z,78.39
2023-03-23T01:50:03.313Z,78.18
2023-03-23T01:55:05.339Z,77.5
2023-03-23T02:00:02.694Z,75.99
2023-03-23T02:05:03.389Z,75.09
2023-03-23T02:10:03.288Z,74.46
2023-03-23T02:15:03.588Z,75.15
2023-03-23T02:20:03.430Z,75.93
2023-03-23T02:25:03.067Z,76.05
2023-03-23T02:30:02.777Z,76.79
2023-03-23T02:35:03.651Z,76.11
2023-03-23T02:40:03.539Z,75.75
2023-03-23T02:45:03.251Z,76.61
2023-03-23T02:50:02.936Z,76.69
2023-03-23T02:55:04.083Z,70.85
2023-03-23T03:00:03.585Z,70.45
2023-03-23T03:05:03.239Z,70.42
2023-03-23T03:10:03.245Z,71.73
2023-03-23T03:15:03.748Z,72.85
2023-03-23T03:20:03.821Z,71.11
2023-03-23T03:25:19.173Z,71.55
2023-03-23T03:30:02.648Z,70.53
2023-03-23T03:35:03.645Z,70.69
2023-03-23T03:40:03.249Z,70.35
2023-03-23T03:45:03.620Z,69.89
2023-03-23T03:50:03.213Z,69.3
2023-03-23T03:55:03.762Z,70.24
2023-03-23T04:00:03.360Z,70.91
2023-03-23T04:05:03.914Z,70.86
2023-03-23T04:10:03.478Z,70.33
2023-03-23T04:15:07.124Z,70.5
2023-03-23T04:20:03.121Z,71.83
2023-03-23T04:25:03.124Z,73.46
2023-03-23T04:30:03.635Z,72.76
2023-03-23T04:35:15.073Z,71.85
2023-03-23T04:40:03.310Z,72.56
2023-03-23T04:45:03.084Z,70.97
2023-03-23T04:50:02.792Z,70.66
2023-03-23T04:55:04.717Z,71.56
2023-03-23T05:00:03.351Z,72.81
2023-03-23T05:05:03.620Z,72.05
2023-03-23T05:10:02.810Z,71.27
2023-03-23T05:15:02.792Z,72.5
2023-03-23T05:20:03.134Z,75.38
2023-03-23T05:25:03.266Z,76.3
2023-03-23T05:30:03.163Z,74.14
2023-03-23T05:35:02.795Z,76.39
2023-03-23T05:40:03.480Z,73.32
2023-03-23T05:45:03.171Z,74.9
2023-03-23T05:50:02.988Z,74.79
2023-03-23T05:55:03.296Z,77
2023-03-23T06:00:03.554Z,76.34
2023-03-23T06:05:03.102Z,79.47
2023-03-23T06:10:03.239Z,79.9
2023-03-23T06:15:03.012Z,81.49
2023-03-23T06:20:02.828Z,79.76
2023-03-23T06:25:02.742Z,81.46
2023-03-23T06:30:03.524Z,84.58
2023-03-23T06:35:03.269Z,86.13
2023-03-23T06:40:02.995Z,87.22
2023-03-23T06:45:02.882Z,89.03
2023-03-23T06:55:03.353Z,93.13
2023-03-23T07:00:03.107Z,95.15
2023-03-23T07:05:02.806Z,95.64
2023-03-23T07:10:02.659Z,96.01
2023-03-23T07:15:03.346Z,96.67
2023-03-23T07:20:03.090Z,96.52
2023-03-23T07:25:02.823Z,97.45
2023-03-23T07:30:02.735Z,98.04
2023-03-23T07:35:08.562Z,97.8
2023-03-23T07:40:02.593Z,96.35
2023-03-23T07:45:02.584Z,96.22
2023-03-23T07:50:03.311Z,96.49
2023-03-23T07:55:03.485Z,98.1
2023-03-23T08:00:02.603Z,95.3
2023-03-23T08:05:02.680Z,95.55
2023-03-23T08:10:03.416Z,93.09
2023-03-23T08:15:03.123Z,92
2023-03-23T08:20:02.856Z,91.36
2023-03-23T08:25:02.804Z,90.85
2023-03-23T08:30:02.583Z,89.07
2023-03-23T08:35:03.320Z,90.02
2023-03-23T08:40:03.218Z,90.23
2023-03-23T08:45:03.156Z,87.61
2023-03-23T08:50:02.955Z,86.33
2023-03-23T08:55:02.805Z,87.65
2023-03-23T09:00:03.413Z,85.91
2023-03-23T09:05:03.141Z,85.32
2023-03-23T09:10:03.073Z,86.03
2023-03-23T09:15:03.036Z,83.73
2023-03-23T09:20:02.959Z,86.04
2023-03-23T09:25:02.721Z,84.87
2023-03-23T09:30:02.656Z,84.2
2023-03-23T09:35:03.356Z,83.93
2023-03-23T09:40:07.407Z,84
2023-03-23T09:45:03.267Z,83.94
2023-03-23T09:50:02.956Z,82.73
2023-03-23T09:55:03.424Z,80.56
2023-03-23T10:00:02.647Z,83.09
2023-03-23T10:05:03.217Z,81.28
2023-03-23T10:10:03.150Z,80.98
2023-03-23T10:15:02.920Z,81.88
2023-03-23T10:20:02.903Z,83.61
2023-03-23T10:25:02.304Z,80.46
2023-03-23T10:30:03.480Z,79.52
2023-03-23T10:35:03.194Z,81.69
2023-03-23T10:40:03.115Z,81.36
2023-03-23T10:45:02.834Z,80.59
2023-03-23T10:50:03.164Z,82
2023-03-23T10:55:03.611Z,80.9
2023-03-23T11:00:03.557Z,79.92
2023-03-23T11:05:19.949Z,78.85
2023-03-23T11:10:03.157Z,77.99
2023-03-23T11:15:02.946Z,77.88
2023-03-23T11:20:02.636Z,78.19
2023-03-23T11:25:03.360Z,76.68
2023-03-23T11:30:03.308Z,77
2023-03-23T11:35:16.684Z,75.76
2023-03-23T11:40:02.587Z,76.08
2023-03-23T11:45:03.449Z,76.02
2023-03-23T11:50:03.110Z,76.18
2023-03-23T11:55:02.902Z,78.2
2023-03-23T12:00:03.597Z,77.11
2023-03-23T12:05:02.851Z,76.25
2023-03-23T12:10:02.587Z,77.14
2023-03-23T12:15:02.811Z,73.57
2023-03-23T12:20:02.621Z,70.58
2023-03-23T12:25:03.532Z,73.62
2023-03-23T12:30:03.239Z,71.08
2023-03-23T12:35:02.966Z,68.82
2023-03-23T12:40:02.866Z,66.26
2023-03-23T12:45:02.767Z,69.72
2023-03-23T12:50:03.401Z,68.18
2023-03-23T12:55:03.321Z,68.06
2023-03-23T13:00:02.994Z,69.42
2023-03-23T13:05:02.231Z,69.56
2023-03-23T13:10:06.223Z,66.12
2023-03-23T13:15:03.236Z,66.98
2023-03-23T13:20:02.952Z,69.08
2023-03-23T13:25:02.759Z,68.26
2023-03-23T13:30:03.547Z,69.51
2023-03-23T13:35:03.185Z,66.15
2023-03-23T13:40:03.007Z,70.33
2023-03-23T13:45:02.810Z,68.91
2023-03-23T13:50:03.484Z,64.25
2023-03-23T13:55:03.715Z,66.53
2023-03-23T14:00:03.307Z,68.21
2023-03-23T14:05:03.259Z,66.46
2023-03-23T14:10:03.047Z,69.16
2023-03-23T14:15:02.568Z,68.88
2023-03-23T14:20:03.456Z,69.99
2023-03-23T14:25:03.436Z,68.69
2023-03-23T14:30:03.468Z,66.11
2023-03-23T14:35:03.424Z,64.73
2023-03-23T14:40:03.120Z,65.32
2023-03-23T14:45:03.022Z,65.67
2023-03-23T14:50:02.736Z,59.63
2023-03-23T14:55:03.328Z,61.28
2023-03-23T15:00:03.478Z,59.11
2023-03-23T15:05:03.176Z,63.87
2023-03-23T15:10:02.980Z,64.79
2023-03-23T15:15:02.761Z,65.01
2023-03-23T15:20:03.427Z,65.29
2023-03-23T15:25:03.192Z,66.45
2023-03-23T15:30:02.556Z,66.63
2023-03-23T15:35:13.054Z,64.99
2023-03-23T15:40:02.909Z,63.04
2023-03-23T15:45:02.731Z,65.09
2023-03-23T15:50:02.675Z,65.92
2023-03-23T16:05:02.886Z,68.17
2023-03-23T16:10:02.901Z,68.62
2023-03-23T16:15:03.614Z,69.05
2023-03-23T16:20:03.387Z,70.15
2023-03-23T16:25:03.121Z,70.41
2023-03-23T16:30:04.955Z,68.74
2023-03-23T16:35:03.584Z,70.46
2023-03-23T16:40:02.317Z,70.01
2023-03-23T16:45:03.459Z,69.41
2023-03-23T16:50:02.686Z,70.51
2023-03-23T16:55:02.935Z,70.58
2023-03-23T17:00:03.362Z,69.4
2023-03-23T17:05:03.032Z,70.65
2023-03-23T17:10:03.144Z,71.03
2023-03-23T17:15:03.449Z,71.67
2023-03-23T17:20:03.250Z,72.86
2023-03-23T17:25:03.217Z,72.05
2023-03-23T17:30:02.915Z,73.5
2023-03-23T17:35:02.637Z,74.03
2023-03-23T17:40:03.526Z,73.79
2023-03-23T17:45:03.355Z,73.66
2023-03-23T17:50:13.092Z,72.88
2023-03-23T17:55:03.036Z,73.04
2023-03-23T18:00:02.841Z,72.62
2023-03-23T18:05:02.997Z,73.5
2023-03-23T18:10:02.637Z,73.78
2023-03-23T18:15:03.808Z,74.91
2023-03-23T18:20:03.576Z,75.41
2023-03-23T18:25:03.396Z,76.31
2023-03-23T18:30:03.234Z,78.03
2023-03-23T18:35:03.115Z,77.64
2023-03-23T18:40:03.230Z,78.2
2023-03-23T18:45:03.216Z,78.55
2023-03-23T18:50:02.762Z,79.11
2023-03-23T18:55:02.975Z,78.95
2023-03-23T19:00:02.645Z,79.85
2023-03-23T19:05:03.321Z,79.83
2023-03-23T19:10:03.303Z,80.97
2023-03-23T19:15:03.251Z,82.98
2023-03-23T19:20:05.051Z,81.85
2023-03-23T19:25:03.096Z,80.7
2023-03-23T19:30:02.736Z,80.39
2023-03-23T19:35:03.371Z,82.17
2023-03-23T19:40:40.835Z,81.42
2023-03-23T19:45:03.891Z,81.93
2023-03-23T19:50:03.116Z,82.05
2023-03-23T19:55:04.802Z,81.24
2023-03-23T20:00:03.518Z,81.63
2023-03-23T20:05:03.510Z,81.36
2023-03-23T20:10:03.259Z,80.47
2023-03-23T20:15:02.914Z,79.61
2023-03-23T20:20:02.706Z,80.45
2023-03-23T20:25:03.411Z,81.08
2023-03-23T20:30:04.901Z,81.8
2023-03-23T20:35:03.049Z,82.1
2023-03-23T20:40:02.739Z,82.16
2023-03-23T20:45:03.491Z,80.57
2023-03-23T20:50:07.471Z,81.57
2023-03-23T20:55:04.064Z,81.87
2023-03-23T21:00:03.159Z,82.19
2023-03-23T21:05:02.796Z,81.35
2023-03-23T21:10:02.366Z,81.6
2023-03-23T21:15:03.065Z,82.37
2023-03-23T21:20:02.795Z,82.52
2023-03-23T21:25:02.719Z,82.11
2023-03-23T21:30:03.519Z,82.37
2023-03-23T21:35:03.219Z,82.8
2023-03-23T21:40:02.930Z,82.25
2023-03-23T21:45:02.827Z,83.99
2023-03-23T21:50:03.375Z,85.37
2023-03-23T21:55:03.463Z,84.23
2023-03-23T22:00:02.580Z,85.08
2023-03-23T22:05:02.938Z,85.11
2023-03-23T22:10:02.947Z,85.28
2023-03-23T22:15:02.754Z,85.7
2023-03-23T22:20:03.543Z,86.65
2023-03-23T22:25:03.405Z,87.75
2023-03-23T22:30:03.341Z,88.58
2023-03-23T22:35:02.948Z,88.43
2023-03-23T22:40:02.897Z,89.05
2023-03-23T22:45:02.666Z,89.64
2023-03-23T22:50:03.405Z,89.72
2023-03-23T22:55:03.279Z,88.98
2023-03-23T23:00:02.908Z,89.56
2023-03-23T23:05:03.008Z,89.5
2023-03-23T23:10:03.500Z,89.64
2023-03-23T23:15:03.623Z,90.52
2023-03-23T23:20:03.383Z,91.15
2023-03-23T23:25:03.144Z,91.8
2023-03-23T23:30:02.884Z,92.09
2023-03-23T23:35:03.572Z,92.18
2023-03-23T23:40:03.624Z,91.06
2023-03-23T23:45:02.638Z,91.24
2023-03-23T23:50:03.332Z,91.8
2023-03-23T23:55:03.388Z,91.68
